createdAt,value
2023-02-11T00:00:13.922Z,56.80
2023-02-11T00:05:17.580Z,57.72
2023-02-11T00:10:21.209Z,58.49
2023-02-11T00:15:26.562Z,58.88
2023-02-11T00:20:30.167Z,59.16
2023-02-11T00:25:33.998Z,59.73
2023-02-11T00:30:39.775Z,60.23
2023-02-11T00:35:43.503Z,60.69
2023-02-11T00:40:47.160Z,60.70
2023-02-11T00:45:52.670Z,61.07
2023-02-11T00:50:56.530Z,60.66
2023-02-11T00:56:00.225Z,60.90
2023-02-11T01:01:06.024Z,60.99
2023-02-11T01:06:14.640Z,60.41
2023-02-11T01:11:38.680Z,60.78
2023-02-11T01:16:44.255Z,62.05
2023-02-11T01:21:47.880Z,62.61
2023-02-11T01:26:51.499Z,62.99
2023-02-11T01:31:56.789Z,62.79
2023-02-11T01:37:01.221Z,62.62
2023-02-11T01:42:05.109Z,61.41
2023-02-11T01:47:10.693Z,61.20
2023-02-11T01:52:18.205Z,60.95
2023-02-11T01:57:24.692Z,60.12
2023-02-11T02:02:37.591Z,60.42
2023-02-11T02:07:48.026Z,60.81
2023-02-11T02:12:51.646Z,60.24
2023-02-11T02:18:10.367Z,60.78
2023-02-11T02:23:36.266Z,61.67
2023-02-11T02:29:14.837Z,61.77
2023-02-11T02:34:28.571Z,62.53
2023-02-11T02:39:36.324Z,62.64
2023-02-11T02:44:40.006Z,63.67
2023-02-11T02:49:45.353Z,64.61
2023-02-11T02:55:25.563Z,66.20
2023-02-11T03:00:36.462Z,66.21
2023-02-11T03:05:50.828Z,66.97
2023-02-11T03:10:56.343Z,66.89
2023-02-11T03:16:03.939Z,67.11
2023-02-11T03:21:10.824Z,67.77
2023-02-11T03:26:22.443Z,67.96
2023-02-11T03:31:34.892Z,67.66
2023-02-11T03:36:45.458Z,67.83
2023-02-11T03:41:50.697Z,67.37
2023-02-11T03:46:56.554Z,67.62
2023-02-11T03:52:04.088Z,67.50
2023-02-11T03:57:07.827Z,66.76
2023-02-11T04:02:11.481Z,66.74
2023-02-11T04:07:16.764Z,67.00
2023-02-11T04:12:20.536Z,67.76
2023-02-11T04:17:24.426Z,67.78
2023-02-11T04:22:30.285Z,67.75
2023-02-11T04:27:34.849Z,68.12
2023-02-11T04:32:38.516Z,67.63
2023-02-11T04:37:43.876Z,67.67
2023-02-11T04:42:47.509Z,67.78
2023-02-11T04:47:51.206Z,68.12
2023-02-11T04:52:56.537Z,68.36
2023-02-11T04:58:00.281Z,68.27
2023-02-11T05:03:03.944Z,68.49
2023-02-11T05:08:09.724Z,69.31
2023-02-11T05:13:13.347Z,69.86
2023-02-11T05:18:16.993Z,70.19
2023-02-11T05:23:22.287Z,71.03
2023-02-11T05:28:26.157Z,71.18
2023-02-11T05:33:29.922Z,71.46
2023-02-11T05:38:35.367Z,71.68
2023-02-11T05:43:39.167Z,71.41
2023-02-11T05:48:42.818Z,71.66
2023-02-11T05:53:48.096Z,72.21
2023-02-11T05:58:51.714Z,71.55
2023-02-11T06:03:55.383Z,71.84
2023-02-11T06:09:00.689Z,72.05
2023-02-11T06:14:04.392Z,71.85
2023-02-11T06:19:08.031Z,71.93
2023-02-11T06:24:13.609Z,73.20
2023-02-11T06:29:17.265Z,72.61
2023-02-11T06:34:20.896Z,72.43
2023-02-11T06:39:26.180Z,72.27
2023-02-11T06:44:29.840Z,72.25
2023-02-11T06:49:33.621Z,73.26
2023-02-11T06:54:39.063Z,73.10
2023-02-11T06:59:42.917Z,73.06
2023-02-11T07:04:46.537Z,72.64
2023-02-11T07:09:52.508Z,72.66
2023-02-11T07:14:57.397Z,72.27
2023-02-11T07:20:01.053Z,73.05
2023-02-11T07:25:07.595Z,72.68
2023-02-11T07:30:12.714Z,73.30
2023-02-11T07:35:16.456Z,73.52
2023-02-11T07:40:22.635Z,74.77
2023-02-11T07:45:26.254Z,74.12
2023-02-11T07:50:30.057Z,73.31
2023-02-11T07:55:35.338Z,73.87
2023-02-11T08:00:39.055Z,73.53
2023-02-11T08:05:42.682Z,73.89
2023-02-11T08:10:48.068Z,74.64
2023-02-11T08:15:51.975Z,76.17
2023-02-11T08:20:55.828Z,75.87
2023-02-11T08:26:04.628Z,78.11
2023-02-11T08:31:09.715Z,77.85
2023-02-11T08:36:15.078Z,78.35
2023-02-11T08:41:20.347Z,79.11
2023-02-11T08:46:24.020Z,79.00
2023-02-11T08:51:29.658Z,79.92
2023-02-11T08:56:34.904Z,84.04
2023-02-11T09:01:39.495Z,83.51
2023-02-11T09:06:43.304Z,83.65
2023-02-11T09:11:48.608Z,84.76
2023-02-11T09:16:52.599Z,85.17
2023-02-11T09:21:57.028Z,85.62
2023-02-11T09:27:02.331Z,86.72
2023-02-11T09:32:08.623Z,87.32
2023-02-11T09:37:13.405Z,88.00
2023-02-11T09:42:44.693Z,89.77
2023-02-11T09:47:51.715Z,88.52
2023-02-11T09:53:01.569Z,91.08
2023-02-11T09:58:12.741Z,91.32
2023-02-11T10:03:45.364Z,93.03
2023-02-11T10:09:00.231Z,92.28
2023-02-11T10:14:20.198Z,92.70
2023-02-11T10:19:46.907Z,92.82
2023-02-11T10:24:54.704Z,91.25
2023-02-11T10:30:05.097Z,92.88
2023-02-11T10:35:17.832Z,93.20
2023-02-11T10:40:23.196Z,92.88
2023-02-11T10:45:32.937Z,92.61
2023-02-11T10:50:36.748Z,92.39
2023-02-11T10:55:50.025Z,93.36
2023-02-11T11:00:59.081Z,95.04
2023-02-11T11:06:04.701Z,92.44
2023-02-11T11:11:10.024Z,92.82
2023-02-11T11:16:24.217Z,93.68
2023-02-11T11:21:34.112Z,93.48
2023-02-11T11:26:43.249Z,93.11
2023-02-11T11:31:56.629Z,94.47
2023-02-11T11:37:01.672Z,93.17
2023-02-11T11:42:23.172Z,93.26
2023-02-11T11:47:40.272Z,92.78
2023-02-11T11:52:52.133Z,92.68
2023-02-11T11:57:55.781Z,92.65
2023-02-11T12:03:31.032Z,92.83
2023-02-11T12:08:49.455Z,92.45
2023-02-11T12:14:10.888Z,92.80
2023-02-11T12:19:45.405Z,92.94
2023-02-11T12:25:06.325Z,93.67
2023-02-11T12:30:27.843Z,93.01
2023-02-11T12:35:40.598Z,92.82
2023-02-11T12:40:54.306Z,94.01
2023-02-11T12:46:13.309Z,93.98
2023-02-11T12:51:27.907Z,93.25
2023-02-11T12:56:38.427Z,92.51
2023-02-11T13:01:44.256Z,92.75
2023-02-11T13:06:53.154Z,92.95
2023-02-11T13:12:03.072Z,93.31
2023-02-11T13:17:15.780Z,93.84
2023-02-11T13:22:24.954Z,94.83
2023-02-11T13:27:41.495Z,94.56
2023-02-11T13:33:18.646Z,94.95
2023-02-11T13:38:22.873Z,95.48
2023-02-11T13:43:30.483Z,95.04
2023-02-11T13:48:36.922Z,95.49
2023-02-11T13:53:47.151Z,98.41
2023-02-11T13:58:53.323Z,97.61
2023-02-11T14:04:20.639Z,98.94
2023-02-11T14:09:44.843Z,99.81
2023-02-11T14:15:19.374Z,98.30
2023-02-11T14:20:44.167Z,99.92
2023-02-11T14:26:00.746Z,99.80
2023-02-11T14:31:08.790Z,100.00
2023-02-11T14:36:29.553Z,98.90
2023-02-11T14:41:39.503Z,97.97
2023-02-11T14:46:48.619Z,99.46
2023-02-11T14:51:53.415Z,97.65
2023-02-11T14:57:12.484Z,98.43
2023-02-11T15:02:24.398Z,99.49
2023-02-11T15:07:28.155Z,99.44
2023-02-11T15:12:31.780Z,99.02
2023-02-11T15:17:37.804Z,99.60
2023-02-11T15:22:41.477Z,99.29
2023-02-11T15:27:50.344Z,99.63
2023-02-11T15:32:57.229Z,99.34
2023-02-11T15:38:01.698Z,99.69
2023-02-11T15:43:06.687Z,99.26
2023-02-11T15:48:16.730Z,100.00
2023-02-11T15:53:26.178Z,100.00
2023-02-11T15:58:29.958Z,100.00
2023-02-11T16:03:35.233Z,100.00
2023-02-11T16:08:38.890Z,100.00
2023-02-11T16:13:47.413Z,100.00
2023-02-11T16:19:04.338Z,100.00
2023-02-11T16:24:18.712Z,100.00
2023-02-11T16:29:26.687Z,100.00
2023-02-11T16:34:32.005Z,100.00
2023-02-11T16:39:35.745Z,100.00
2023-02-11T16:44:39.699Z,100.00
2023-02-11T16:49:45.734Z,100.00
2023-02-11T16:54:49.383Z,99.43
2023-02-11T16:59:53.470Z,99.04
2023-02-11T17:05:01.159Z,98.40
2023-02-11T17:10:04.970Z,97.46
2023-02-11T17:15:09.399Z,96.34
2023-02-11T17:20:16.209Z,93.99
2023-02-11T17:25:20.256Z,92.42
2023-02-11T17:30:24.009Z,93.91
2023-02-11T17:35:29.341Z,92.95
2023-02-11T17:40:33.008Z,92.28
2023-02-11T17:45:41.500Z,94.83
2023-02-11T17:50:46.882Z,90.48
2023-02-11T17:55:50.835Z,89.01
2023-02-11T18:00:58.487Z,85.66
2023-02-11T18:06:05.708Z,84.51
2023-02-11T18:11:11.347Z,86.08
2023-02-11T18:16:14.964Z,87.72
2023-02-11T18:21:22.203Z,87.53
2023-02-11T18:26:26.236Z,81.35
2023-02-11T18:31:30.006Z,83.54
2023-02-11T18:36:35.908Z,83.78
2023-02-11T18:41:39.512Z,81.44
2023-02-11T18:46:43.116Z,84.05
2023-02-11T18:51:48.741Z,85.19
2023-02-11T18:56:52.367Z,86.40
2023-02-11T19:01:55.965Z,86.96
2023-02-11T19:07:01.240Z,81.05
2023-02-11T19:12:05.278Z,80.26
2023-02-11T19:17:09.354Z,80.56
2023-02-11T19:22:14.820Z,77.11
2023-02-11T19:27:18.431Z,79.82
2023-02-11T19:32:22.024Z,77.57
2023-02-11T19:37:27.304Z,76.94
2023-02-11T19:42:30.943Z,76.73
2023-02-11T19:47:34.546Z,76.52
2023-02-11T19:52:40.887Z,74.48
2023-02-11T19:57:44.551Z,75.86
2023-02-11T20:02:48.893Z,75.12
2023-02-11T20:07:54.210Z,75.55
2023-02-11T20:12:57.893Z,74.79
2023-02-11T20:18:01.533Z,73.46
2023-02-11T20:23:06.790Z,68.29
2023-02-11T20:28:10.432Z,69.77
2023-02-11T20:33:14.036Z,66.76
2023-02-11T20:38:19.308Z,66.72
2023-02-11T20:43:23.122Z,65.96
2023-02-11T20:48:26.736Z,64.32
2023-02-11T20:53:32.226Z,66.30
2023-02-11T20:58:36.695Z,66.16
2023-02-11T21:03:40.435Z,66.56
2023-02-11T21:08:47.230Z,64.62
2023-02-11T21:13:50.893Z,63.81
2023-02-11T21:18:54.493Z,64.56
2023-02-11T21:23:59.891Z,63.04
2023-02-11T21:29:03.718Z,61.56
2023-02-11T21:34:08.234Z,58.65
2023-02-11T21:39:13.570Z,58.83
2023-02-11T21:44:17.236Z,58.16
2023-02-11T21:49:20.888Z,57.97
2023-02-11T21:54:26.160Z,54.48
2023-02-11T21:59:30.146Z,55.87
2023-02-11T22:04:33.791Z,55.15
2023-02-11T22:09:39.667Z,55.05
2023-02-11T22:14:43.423Z,53.56
2023-02-11T22:19:47.159Z,52.66
2023-02-11T22:24:52.566Z,53.37
2023-02-11T22:29:56.216Z,54.30
2023-02-11T22:41:11.519Z,53.85
2023-02-11T22:46:16.653Z,53.04
2023-02-11T22:51:22.662Z,53.83
2023-02-11T22:56:53.554Z,52.67
2023-02-11T23:01:57.422Z,54.33
2023-02-11T23:07:01.109Z,53.94
2023-02-11T23:12:06.868Z,56.02
2023-02-11T23:17:10.552Z,54.82
2023-02-11T23:22:14.177Z,55.62
2023-02-11T23:27:19.452Z,55.31
2023-02-11T23:32:23.233Z,56.89
2023-02-11T23:37:26.942Z,56.51
2023-02-11T23:42:32.254Z,55.65
2023-02-11T23:47:36.239Z,56.19
2023-02-11T23:52:39.904Z,57.34
2023-02-11T23:57:45.214Z,58.53
